Time;durP1;ratioP1;P1;durP2;ratioP2;P2;SDS_P1;SDS_P2;PMS_P1;PMS_P2;Temp;Humidity;BMP_temperature;BMP_pressure;BME280_temperature;BME280_humidity;BME280_pressure;Samples;Min_cycle;Max_cycle;Signal;HPM_P1;HPM_P2
2021/03/01 00:01:44;;;;;;;36.88;22.00;;;4.00;99.90;;;;;;5068528;28;20056;-63
2021/03/01 00:04:10;;;;;;;38.65;21.77;;;4.00;99.90;;;;;;5068024;28;20068;-64
2021/03/01 00:06:36;;;;;;;36.88;21.05;;;4.00;99.90;;;;;;5070797;28;20040;-63
2021/03/01 00:09:02;;;;;;;47.53;23.42;;;4.00;99.90;;;;;;5072469;28;20483;-65
2021/03/01 00:11:27;;;;;;;43.78;22.73;;;3.90;99.90;;;;;;5071821;28;20495;-64
2021/03/01 00:13:53;;;;;;;39.55;21.00;;;3.90;99.90;;;;;;5072679;28;20056;-62
2021/03/01 00:16:18;;;;;;;41.92;21.05;;;3.90;99.90;;;;;;5076795;28;20020;-66
2021/03/01 00:18:44;;;;;;;41.03;21.40;;;3.90;99.90;;;;;;5076612;28;20095;-62
2021/03/01 00:21:09;;;;;;;35.60;21.67;;;3.90;99.90;;;;;;5078355;28;20045;-62
2021/03/01 00:23:35;;;;;;;41.15;22.20;;;3.90;99.90;;;;;;5095195;28;20115;-65
2021/03/01 00:26:00;;;;;;;40.17;22.30;;;3.90;99.90;;;;;;5088754;28;20020;-62
2021/03/01 00:28:26;;;;;;;45.50;22.83;;;3.90;99.90;;;;;;5091714;28;20387;-63
2021/03/01 00:30:51;;;;;;;36.30;21.67;;;4.00;99.90;;;;;;5079986;28;20101;-63
2021/03/01 00:33:17;;;;;;;44.70;22.42;;;4.00;99.90;;;;;;5075630;28;20019;-63
2021/03/01 00:35:43;;;;;;;50.50;24.63;;;4.00;99.90;;;;;;5076135;28;20434;-63
2021/03/01 00:38:08;;;;;;;43.90;23.85;;;4.00;99.90;;;;;;5072919;28;20131;-62
2021/03/01 00:40:34;;;;;;;46.70;22.83;;;4.00;99.90;;;;;;5082450;28;20487;-62
2021/03/01 00:42:59;;;;;;;42.15;22.67;;;4.00;99.90;;;;;;5071246;28;20036;-63
2021/03/01 00:45:25;;;;;;;48.85;24.98;;;4.00;99.90;;;;;;5071579;28;20035;-65
2021/03/01 00:47:51;;;;;;;44.80;23.13;;;4.00;99.90;;;;;;5076775;28;20025;-63
2021/03/01 00:50:16;;;;;;;46.28;24.08;;;4.00;99.90;;;;;;5071654;28;20052;-66
2021/03/01 00:52:42;;;;;;;45.75;24.40;;;4.00;99.90;;;;;;5075222;28;20235;-63
2021/03/01 00:55:09;;;;;;;43.38;21.73;;;4.00;99.90;;;;;;5075312;28;20401;-62
2021/03/01 00:57:34;;;;;;;38.95;22.17;;;4.00;99.90;;;;;;5061653;28;20075;-65
2021/03/01 01:00:00;;;;;;;43.78;24.58;;;4.00;99.90;;;;;;5061071;28;20595;-62
2021/03/01 01:02:25;;;;;;;48.83;27.05;;;3.90;99.90;;;;;;5066518;28;20032;-62
2021/03/01 01:04:51;;;;;;;51.10;25.08;;;3.90;99.90;;;;;;5063211;28;20033;-64
2021/03/01 01:07:17;;;;;;;48.60;25.30;;;3.90;99.90;;;;;;5071448;28;20377;-64
2021/03/01 01:09:42;;;;;;;41.95;25.42;;;3.80;99.90;;;;;;5060929;28;20052;-65
2021/03/01 01:12:08;;;;;;;48.67;26.50;;;3.80;99.90;;;;;;5058093;28;20021;-61
2021/03/01 01:14:34;;;;;;;69.45;30.25;;;3.70;99.90;;;;;;5074027;28;20477;-61
2021/03/01 01:16:59;;;;;;;84.75;34.00;;;3.60;99.90;;;;;;5069349;28;20035;-63
2021/03/01 01:19:25;;;;;;;96.35;31.65;;;3.40;99.90;;;;;;5070771;28;20017;-61
2021/03/01 01:21:51;;;;;;;116.78;36.78;;;3.40;99.90;;;;;;5070187;28;20460;-62
2021/03/01 01:24:16;;;;;;;115.65;36.63;;;3.30;99.90;;;;;;5076798;28;20039;-64
2021/03/01 01:26:42;;;;;;;129.27;34.80;;;3.30;99.90;;;;;;5073591;28;20092;-62
2021/03/01 01:29:07;;;;;;;163.75;37.22;;;3.30;99.90;;;;;;5074657;28;20046;-63
2021/03/01 01:31:33;;;;;;;189.05;43.13;;;3.30;99.90;;;;;;5081358;28;20016;-65
2021/03/01 01:33:58;;;;;;;190.00;43.53;;;3.30;99.90;;;;;;5070821;28;20093;-62
2021/03/01 01:36:24;;;;;;;146.05;39.17;;;3.40;99.90;;;;;;5071282;28;20055;-64
2021/03/01 01:38:50;;;;;;;108.50;36.70;;;3.40;99.90;;;;;;5070582;28;20025;-62
2021/03/01 01:41:16;;;;;;;114.85;39.30;;;3.40;99.90;;;;;;5071223;28;20428;-63
2021/03/01 01:43:41;;;;;;;112.75;36.80;;;3.40;99.90;;;;;;5070831;28;20354;-63
2021/03/01 01:46:07;;;;;;;150.10;41.45;;;3.50;99.90;;;;;;5069594;28;20039;-62
2021/03/01 01:48:32;;;;;;;129.93;40.20;;;3.50;99.90;;;;;;5070788;28;20028;-64
2021/03/01 01:50:58;;;;;;;133.30;41.10;;;3.50;99.90;;;;;;5069447;28;20025;-62
2021/03/01 01:53:24;;;;;;;99.05;37.95;;;3.60;99.90;;;;;;5078982;28;20679;-61
2021/03/01 01:55:50;;;;;;;143.93;43.88;;;3.60;99.90;;;;;;5089066;28;20052;-63
2021/03/01 01:58:16;;;;;;;125.82;40.55;;;3.70;99.90;;;;;;5084148;28;20500;-62
2021/03/01 02:00:45;;;;;;;151.00;41.42;;;3.70;99.90;;;;;;5070817;28;20024;-65
2021/03/01 02:03:31;;;;;;;134.88;41.10;;;3.70;99.90;;;;;;5074536;28;20043;-64
2021/03/01 02:06:04;;;;;;;169.45;44.38;;;3.70;99.90;;;;;;5084567;28;20518;-63
2021/03/01 02:08:39;;;;;;;139.68;43.13;;;3.70;99.90;;;;;;5070971;28;20028;-63
2021/03/01 02:11:16;;;;;;;143.93;44.47;;;3.70;99.90;;;;;;5069841;28;20020;-62
2021/03/01 02:13:48;;;;;;;113.78;41.20;;;3.70;99.90;;;;;;5068668;28;20041;-63
2021/03/01 02:16:23;;;;;;;127.97;42.85;;;3.80;99.90;;;;;;5075027;28;20062;-63
2021/03/01 02:18:48;;;;;;;119.43;40.88;;;3.80;99.90;;;;;;5071677;28;20127;-63
2021/03/01 02:21:15;;;;;;;130.52;42.90;;;3.90;99.90;;;;;;5069708;28;20460;-62
2021/03/01 02:23:42;;;;;;;122.13;41.05;;;3.90;99.90;;;;;;5068495;28;20417;-63
2021/03/01 02:26:17;;;;;;;151.23;43.58;;;3.90;99.90;;;;;;5069731;28;20052;-64
2021/03/01 02:28:53;;;;;;;120.57;40.00;;;3.90;99.90;;;;;;5050796;28;20036;-63
2021/03/01 02:31:19;;;;;;;130.90;42.03;;;3.90;99.90;;;;;;5080182;28;20054;-65
2021/03/01 02:33:48;;;;;;;163.73;43.55;;;4.00;99.90;;;;;;5080897;28;20035;-63
2021/03/01 02:36:24;;;;;;;156.25;44.03;;;3.90;99.90;;;;;;5073430;28;20046;-63
2021/03/01 02:38:52;;;;;;;164.52;43.72;;;3.90;99.90;;;;;;5079317;28;20032;-64
2021/03/01 02:41:19;;;;;;;167.02;45.17;;;3.90;99.90;;;;;;5069389;28;20380;-62
2021/03/01 02:43:45;;;;;;;165.63;45.47;;;4.00;99.90;;;;;;5068714;28;20037;-63
2021/03/01 02:46:11;;;;;;;149.23;42.15;;;4.00;99.90;;;;;;5063536;28;20028;-64
2021/03/01 02:48:39;;;;;;;117.78;38.97;;;4.00;99.90;;;;;;5067870;28;20028;-62
2021/03/01 02:51:05;;;;;;;133.20;38.65;;;3.90;99.90;;;;;;5070737;28;20029;-63
2021/03/01 02:53:32;;;;;;;121.32;38.97;;;3.90;99.90;;;;;;5059288;28;20023;-63
2021/03/01 02:55:59;;;;;;;111.22;36.30;;;3.90;99.90;;;;;;5056727;28;20080;-62
2021/03/01 02:58:29;;;;;;;117.10;37.35;;;3.90;99.90;;;;;;5068789;28;20162;-63
2021/03/01 03:00:58;;;;;;;93.38;33.80;;;4.00;99.90;;;;;;5083541;28;20020;-64
2021/03/01 03:03:25;;;;;;;93.53;33.80;;;4.00;99.90;;;;;;5069845;28;20028;-63
2021/03/01 03:05:51;;;;;;;97.80;32.85;;;4.00;99.90;;;;;;5076329;28;20029;-66
2021/03/01 03:08:17;;;;;;;112.40;35.53;;;4.00;99.90;;;;;;5081127;28;20033;-63
2021/03/01 03:10:46;;;;;;;99.43;36.72;;;4.00;99.90;;;;;;5031179;28;20477;-64
2021/03/01 03:13:12;;;;;;;96.55;34.17;;;4.00;99.90;;;;;;5057390;28;20024;-64
2021/03/01 03:15:40;;;;;;;90.75;33.22;;;4.10;99.90;;;;;;5067144;28;20031;-63
2021/03/01 03:18:10;;;;;;;83.82;31.17;;;4.00;99.90;;;;;;5069960;28;20033;-63
2021/03/01 03:20:37;;;;;;;95.70;34.58;;;4.00;99.90;;;;;;5067477;28;20113;-63
2021/03/01 03:23:03;;;;;;;82.03;31.52;;;4.00;99.90;;;;;;5068532;28;20037;-63
2021/03/01 03:25:29;;;;;;;82.93;31.98;;;4.10;99.90;;;;;;5072673;28;20500;-62
2021/03/01 03:27:54;;;;;;;92.70;32.35;;;4.10;99.90;;;;;;5068077;28;20062;-64
2021/03/01 03:30:27;;;;;;;83.15;31.83;;;4.10;99.90;;;;;;5071411;28;20024;-62
2021/03/01 03:32:53;;;;;;;;;;;4.10;99.90;;;;;;5069237;28;20021;-66
2021/03/01 03:35:19;;;;;;;84.20;33.08;;;4.10;99.90;;;;;;5067534;28;19956;-63
2021/03/01 03:38:01;;;;;;;85.78;32.10;;;4.10;99.90;;;;;;5075836;28;20044;-63
2021/03/01 03:40:28;;;;;;;95.85;32.20;;;4.10;99.90;;;;;;5067584;28;20068;-64
2021/03/01 03:42:55;;;;;;;97.35;32.67;;;4.20;99.90;;;;;;5067455;28;20067;-64
2021/03/01 03:45:23;;;;;;;84.22;31.58;;;4.10;99.90;;;;;;5072117;28;20135;-64
2021/03/01 03:47:51;;;;;;;83.68;31.15;;;4.10;99.90;;;;;;5076056;28;20017;-63
2021/03/01 03:50:22;;;;;;;89.13;30.67;;;4.10;99.90;;;;;;5078545;28;20021;-63
2021/03/01 03:52:49;;;;;;;88.88;32.00;;;4.10;99.90;;;;;;5071598;28;20016;-63
2021/03/01 03:55:18;;;;;;;90.50;30.65;;;4.20;99.90;;;;;;5076500;28;20032;-62
2021/03/01 03:57:50;;;;;;;83.75;31.45;;;4.20;99.90;;;;;;5060824;28;20023;-63
2021/03/01 04:00:17;;;;;;;96.60;31.63;;;4.20;99.90;;;;;;5079118;28;20017;-63
2021/03/01 04:02:44;;;;;;;95.30;32.53;;;4.20;99.90;;;;;;5069866;28;20489;-63
2021/03/01 04:05:13;;;;;;;92.13;30.50;;;4.20;99.90;;;;;;5070739;28;20036;-63
2021/03/01 04:07:43;;;;;;;97.22;31.90;;;4.20;99.90;;;;;;5069389;28;20039;-65
2021/03/01 04:10:10;;;;;;;91.53;31.83;;;4.30;99.90;;;;;;5070194;28;20677;-62
2021/03/01 04:12:38;;;;;;;97.03;32.42;;;4.30;99.90;;;;;;5067029;28;20034;-62
2021/03/01 04:15:10;;;;;;;96.30;31.55;;;4.30;99.90;;;;;;5068370;28;20481;-63
2021/03/01 04:17:38;;;;;;;90.82;30.48;;;4.40;99.90;;;;;;5065817;28;20036;-62
2021/03/01 04:20:07;;;;;;;90.03;31.23;;;4.40;99.90;;;;;;5055260;28;20027;-62
2021/03/01 04:22:34;;;;;;;88.97;30.83;;;4.40;99.90;;;;;;5053683;28;20025;-63
2021/03/01 04:25:00;;;;;;;88.50;30.80;;;4.30;99.90;;;;;;5066293;28;20481;-64
2021/03/01 04:27:28;;;;;;;80.43;29.25;;;4.30;99.90;;;;;;5068192;28;20705;-62
2021/03/01 04:29:55;;;;;;;81.88;29.60;;;4.30;99.90;;;;;;5066980;28;20020;-63
2021/03/01 04:32:22;;;;;;;97.47;32.92;;;4.30;99.90;;;;;;5068119;28;20048;-64
2021/03/01 04:34:50;;;;;;;86.20;31.30;;;4.30;99.90;;;;;;5066946;28;20030;-64
2021/03/01 04:37:16;;;;;;;95.65;30.02;;;4.40;99.90;;;;;;5066802;28;20396;-64
2021/03/01 04:39:41;;;;;;;93.60;32.08;;;4.40;99.90;;;;;;5082243;28;20028;-65
2021/03/01 04:42:07;;;;;;;88.18;30.55;;;4.40;99.90;;;;;;5087020;28;20407;-63
2021/03/01 04:44:33;;;;;;;87.28;31.30;;;4.30;99.90;;;;;;5065179;28;20037;-64
2021/03/01 04:47:00;;;;;;;86.22;31.10;;;4.30;99.90;;;;;;5068744;28;20026;-64
2021/03/01 04:49:26;;;;;;;89.43;30.88;;;4.30;99.90;;;;;;5050192;28;20029;-63
2021/03/01 04:51:53;;;;;;;92.93;30.30;;;4.30;99.90;;;;;;5055449;28;20075;-64
2021/03/01 04:54:21;;;;;;;86.78;30.38;;;4.30;99.90;;;;;;5055996;28;20052;-63
2021/03/01 04:56:47;;;;;;;83.45;29.35;;;4.30;99.90;;;;;;5045544;28;20054;-65
2021/03/01 04:59:19;;;;;;;85.45;29.58;;;4.30;99.90;;;;;;5070707;28;20029;-64
2021/03/01 05:01:48;;;;;;;83.63;30.52;;;4.20;99.90;;;;;;5063344;28;20044;-63
2021/03/01 05:04:14;;;;;;;84.82;28.90;;;4.20;99.90;;;;;;5061017;28;20043;-63
2021/03/01 05:06:40;;;;;;;88.78;29.63;;;4.20;99.90;;;;;;5059574;28;20044;-65
2021/03/01 05:09:06;;;;;;;85.63;29.98;;;4.10;99.90;;;;;;5070439;28;20466;-63
2021/03/01 05:11:36;;;;;;;83.85;29.45;;;4.20;99.90;;;;;;5067641;28;20029;-62
2021/03/01 05:14:11;;;;;;;87.57;31.38;;;4.20;99.90;;;;;;5066062;28;20036;-64
2021/03/01 05:16:37;;;;;;;98.38;30.92;;;4.20;99.90;;;;;;5058525;28;20023;-64
2021/03/01 05:19:03;;;;;;;88.22;30.33;;;4.20;99.90;;;;;;5067317;28;20028;-62
2021/03/01 05:21:29;;;;;;;86.53;31.27;;;4.30;99.90;;;;;;5063003;28;20327;-64
2021/03/01 05:23:54;;;;;;;85.68;29.83;;;4.30;99.90;;;;;;5070263;28;20653;-63
2021/03/01 05:26:21;;;;;;;81.93;32.60;;;4.30;99.90;;;;;;5069885;28;20394;-62
2021/03/01 05:28:47;;;;;;;82.07;30.45;;;4.30;99.90;;;;;;5063987;28;20060;-62
2021/03/01 05:31:14;;;;;;;89.63;31.55;;;4.20;99.90;;;;;;5070229;28;20104;-62
2021/03/01 05:33:39;;;;;;;90.18;32.17;;;4.20;99.90;;;;;;5065497;28;20033;-65
2021/03/01 05:36:06;;;;;;;93.47;31.50;;;4.30;99.90;;;;;;5063939;28;20082;-62
2021/03/01 05:38:32;;;;;;;94.70;33.28;;;4.30;99.90;;;;;;5068388;28;20086;-62
2021/03/01 05:41:01;;;;;;;93.65;32.60;;;4.30;99.90;;;;;;5062039;28;20027;-63
2021/03/01 05:43:27;;;;;;;84.93;30.52;;;4.30;99.90;;;;;;5070103;28;20032;-63
2021/03/01 05:45:54;;;;;;;89.90;32.30;;;4.40;99.90;;;;;;5076496;28;20055;-62
2021/03/01 05:48:24;;;;;;;100.22;33.53;;;4.40;99.90;;;;;;5076576;28;20039;-63
2021/03/01 05:50:58;;;;;;;85.85;31.60;;;4.40;99.90;;;;;;5068826;28;20036;-63
2021/03/01 05:53:32;;;;;;;85.65;32.08;;;4.40;99.90;;;;;;5078880;28;20036;-62
2021/03/01 05:55:59;;;;;;;83.03;31.15;;;4.40;99.90;;;;;;5069544;28;20445;-64
2021/03/01 05:58:29;;;;;;;90.28;33.13;;;4.30;99.90;;;;;;5079161;28;20039;-65
2021/03/01 06:01:04;;;;;;;92.22;32.63;;;4.30;99.90;;;;;;5072418;28;20021;-65
2021/03/01 06:03:34;;;;;;;84.28;30.35;;;4.30;99.90;;;;;;5058564;28;20041;-64
2021/03/01 06:06:01;;;;;;;92.20;33.03;;;4.30;99.90;;;;;;5071517;28;20031;-66
2021/03/01 06:08:27;;;;;;;101.97;33.53;;;4.30;99.90;;;;;;5064376;28;20367;-63
2021/03/01 06:11:00;;;;;;;89.88;32.03;;;4.30;99.90;;;;;;5068194;28;20111;-63
2021/03/01 06:13:26;;;;;;;101.40;33.03;;;4.30;99.90;;;;;;5068523;28;20020;-63
2021/03/01 06:15:54;;;;;;;99.07;33.13;;;4.30;99.90;;;;;;5065745;28;20071;-64
2021/03/01 06:18:20;;;;;;;103.47;34.35;;;4.30;99.90;;;;;;5064938;28;20009;-65
2021/03/01 06:20:46;;;;;;;93.85;32.65;;;4.40;99.90;;;;;;5067090;28;20389;-65
2021/03/01 06:23:27;;;;;;;100.32;33.95;;;4.30;99.90;;;;;;5067487;28;20037;-63
2021/03/01 06:25:53;;;;;;;95.38;33.10;;;4.20;99.90;;;;;;5043988;28;20021;-63
2021/03/01 06:28:27;;;;;;;107.75;36.13;;;4.20;99.90;;;;;;5060209;28;20086;-62
2021/03/01 06:30:53;;;;;;;102.63;33.25;;;4.20;99.90;;;;;;5061765;28;20359;-64
2021/03/01 06:33:19;;;;;;;115.97;38.28;;;4.20;99.90;;;;;;5060050;28;20059;-65
2021/03/01 06:35:49;;;;;;;112.95;36.78;;;4.20;99.90;;;;;;5058015;28;20068;-63
2021/03/01 06:38:31;;;;;;;112.93;35.88;;;4.10;99.90;;;;;;5055388;28;20043;-62
2021/03/01 06:41:09;;;;;;;109.90;36.83;;;4.20;99.90;;;;;;5056805;28;20024;-61
2021/03/01 06:43:36;;;;;;;104.90;35.75;;;4.10;99.90;;;;;;5063643;28;20136;-64
2021/03/01 06:46:13;;;;;;;118.75;36.05;;;4.10;99.90;;;;;;5070776;28;20377;-65
2021/03/01 06:48:42;;;;;;;100.22;34.13;;;4.20;99.90;;;;;;5071650;28;20025;-63
2021/03/01 06:51:09;;;;;;;104.85;33.03;;;4.20;99.90;;;;;;5079122;28;20031;-64
2021/03/01 06:53:35;;;;;;;109.32;34.97;;;4.10;99.90;;;;;;5072272;28;20414;-64
2021/03/01 06:56:04;;;;;;;100.30;34.78;;;4.10;99.90;;;;;;5078754;28;20017;-65
2021/03/01 06:58:36;;;;;;;101.43;34.30;;;4.20;99.90;;;;;;5069484;28;20353;-64
2021/03/01 07:01:04;;;;;;;116.60;36.70;;;4.20;99.90;;;;;;5079023;28;20082;-65
2021/03/01 07:03:31;;;;;;;116.43;35.30;;;4.20;99.90;;;;;;5083822;28;20028;-65
2021/03/01 07:05:58;;;;;;;111.55;36.03;;;4.20;99.90;;;;;;5079627;28;20051;-65
2021/03/01 07:08:54;;;;;;;107.75;35.65;;;4.20;99.90;;;;;;5073077;28;20038;-63
2021/03/01 07:11:31;;;;;;;114.97;34.35;;;4.10;99.90;;;;;;5068531;28;20024;-63
2021/03/01 07:14:06;;;;;;;106.93;34.05;;;4.20;99.90;;;;;;5076652;28;20016;-66
2021/03/01 07:16:51;;;;;;;116.88;34.83;;;4.00;99.90;;;;;;5080598;28;20039;-63
2021/03/01 07:19:31;;;;;;;100.47;34.30;;;4.00;99.90;;;;;;5074537;28;20059;-64
2021/03/01 07:21:58;;;;;;;109.57;34.13;;;3.90;99.90;;;;;;5076664;28;20449;-64
2021/03/01 07:24:26;;;;;;;119.85;36.97;;;3.90;99.90;;;;;;5074596;28;20450;-62
2021/03/01 07:26:56;;;;;;;118.53;36.83;;;3.90;99.90;;;;;;5063922;28;20086;-63
2021/03/01 07:29:23;;;;;;;119.82;34.95;;;4.00;99.90;;;;;;5071770;28;20106;-62
2021/03/01 07:32:06;;;;;;;113.85;35.00;;;3.90;99.90;;;;;;5064750;28;20019;-63
2021/03/01 07:34:34;;;;;;;111.38;34.45;;;3.90;99.90;;;;;;5061857;28;20355;-63
2021/03/01 07:37:00;;;;;;;109.28;34.45;;;3.90;99.90;;;;;;5069291;28;20029;-65
2021/03/01 07:39:27;;;;;;;121.20;37.00;;;3.90;99.90;;;;;;5067895;28;20370;-63
2021/03/01 07:41:54;;;;;;;105.47;34.80;;;4.00;99.90;;;;;;5072969;28;20097;-63
2021/03/01 07:44:26;;;;;;;105.18;33.97;;;4.00;99.90;;;;;;5088865;28;20024;-62
2021/03/01 07:46:52;;;;;;;102.13;33.33;;;4.00;99.90;;;;;;5071255;28;20013;-65
2021/03/01 07:49:41;;;;;;;116.72;35.08;;;4.00;99.90;;;;;;5069197;28;20047;-64
2021/03/01 07:52:27;;;;;;;101.97;33.70;;;4.00;99.90;;;;;;5067991;28;20020;-67
2021/03/01 07:55:03;;;;;;;116.80;36.22;;;4.00;99.90;;;;;;5068314;28;20050;-65
2021/03/01 07:57:30;;;;;;;135.02;38.25;;;3.90;99.90;;;;;;5053579;28;20484;-64
2021/03/01 08:00:01;;;;;;;109.45;36.45;;;3.80;99.90;;;;;;5068827;28;20513;-64
2021/03/01 08:02:31;;;;;;;114.28;35.13;;;3.80;99.90;;;;;;5069197;28;20032;-65
2021/03/01 08:04:58;;;;;;;100.38;33.33;;;3.80;99.90;;;;;;5068489;28;20031;-63
2021/03/01 08:07:43;;;;;;;110.75;34.17;;;4.00;99.90;;;;;;5069741;28;20040;-63
2021/03/01 08:10:11;;;;;;;113.60;35.30;;;4.00;99.90;;;;;;5058203;28;20035;-62
2021/03/01 08:12:38;;;;;;;101.05;34.58;;;3.90;99.90;;;;;;5065572;28;20104;-64
2021/03/01 08:15:08;;;;;;;94.82;32.47;;;4.10;99.90;;;;;;5068599;28;20404;-65
2021/03/01 08:17:36;;;;;;;95.32;34.80;;;4.10;99.90;;;;;;5069087;28;20032;-63
2021/03/01 08:20:04;;;;;;;97.78;32.83;;;4.20;99.90;;;;;;5067949;28;20728;-66
2021/03/01 08:22:31;;;;;;;89.95;33.17;;;4.20;99.90;;;;;;5058528;28;20064;-64
2021/03/01 08:24:57;;;;;;;94.93;32.80;;;4.30;99.90;;;;;;5050710;28;20044;-65
2021/03/01 08:27:25;;;;;;;91.65;30.55;;;4.40;99.90;;;;;;5070544;28;20423;-64
2021/03/01 08:30:16;;;;;;;96.95;30.58;;;4.30;99.90;;;;;;5070165;28;20013;-64
2021/03/01 08:32:42;;;;;;;73.13;28.52;;;4.20;99.90;;;;;;5071901;28;20104;-63
2021/03/01 08:35:21;;;;;;;80.45;28.80;;;4.20;99.90;;;;;;5071869;28;20024;-65
2021/03/01 08:37:47;;;;;;;90.75;27.85;;;4.10;99.90;;;;;;5072115;28;20024;-64
2021/03/01 08:40:22;;;;;;;75.57;27.70;;;4.00;99.90;;;;;;5071178;28;20163;-66
2021/03/01 08:43:08;;;;;;;83.05;27.85;;;4.10;99.90;;;;;;5059822;28;20064;-65
2021/03/01 08:45:43;;;;;;;86.38;29.55;;;4.10;99.90;;;;;;5058915;28;20035;-67
2021/03/01 08:48:20;;;;;;;85.78;29.83;;;4.00;99.90;;;;;;5071999;28;20036;-67
2021/03/01 08:50:48;;;;;;;87.57;30.83;;;4.00;99.90;;;;;;5069434;28;20048;-64
2021/03/01 08:53:28;;;;;;;99.05;31.50;;;4.00;99.90;;;;;;5063408;28;20024;-65
2021/03/01 08:55:56;;;;;;;89.50;30.55;;;4.00;99.90;;;;;;5060095;28;20023;-65
2021/03/01 08:58:23;;;;;;;87.95;28.95;;;4.10;99.90;;;;;;5062561;28;20017;-64
2021/03/01 09:01:03;;;;;;;88.45;29.83;;;4.10;99.90;;;;;;5056060;28;20511;-63
2021/03/01 09:03:39;;;;;;;80.32;28.50;;;4.20;99.90;;;;;;5062495;28;20452;-62
2021/03/01 09:06:11;;;;;;;77.60;29.15;;;4.40;99.90;;;;;;5064961;28;20115;-63
2021/03/01 09:08:40;;;;;;;78.10;29.05;;;4.40;99.90;;;;;;5051568;28;20029;-65
2021/03/01 09:11:18;;;;;;;77.20;27.88;;;4.30;99.90;;;;;;5066024;28;20473;-64
2021/03/01 09:13:46;;;;;;;80.10;28.52;;;4.30;99.90;;;;;;5071507;28;20099;-64
2021/03/01 09:16:31;;;;;;;84.50;28.70;;;4.50;99.90;;;;;;5055164;28;20029;-64
2021/03/01 09:19:15;;;;;;;78.72;29.73;;;4.50;99.90;;;;;;5062098;28;20301;-64
2021/03/01 09:21:43;;;;;;;73.32;27.42;;;4.40;99.90;;;;;;5051810;28;20045;-64
2021/03/01 09:24:10;;;;;;;78.30;29.13;;;4.40;99.90;;;;;;5051910;28;20033;-65
2021/03/01 09:26:44;;;;;;;85.47;29.77;;;4.50;99.90;;;;;;5068465;28;20036;-62
2021/03/01 09:29:17;;;;;;;74.90;28.25;;;4.50;99.90;;;;;;5054177;28;20052;-63
2021/03/01 09:31:45;;;;;;;80.97;28.77;;;4.50;99.90;;;;;;5070624;28;20013;-64
2021/03/01 09:34:13;;;;;;;79.97;27.63;;;4.50;99.90;;;;;;5071541;28;20020;-64
2021/03/01 09:36:48;;;;;;;82.82;28.13;;;4.50;99.90;;;;;;5070992;28;20028;-63
2021/03/01 09:39:18;;;;;;;72.72;27.23;;;4.40;99.90;;;;;;5069820;28;20032;-65
2021/03/01 09:41:45;;;;;;;79.55;28.20;;;4.50;99.90;;;;;;5069361;28;20381;-67
2021/03/01 09:44:11;;;;;;;82.68;31.20;;;4.50;99.90;;;;;;5071024;28;20040;-65
2021/03/01 09:46:37;;;;;;;86.13;30.13;;;4.50;99.90;;;;;;5070297;28;20066;-63
2021/03/01 09:49:09;;;;;;;74.07;28.60;;;4.50;99.90;;;;;;5070613;28;20016;-65
2021/03/01 09:51:35;;;;;;;81.00;29.33;;;4.60;99.90;;;;;;5080876;28;20032;-66
2021/03/01 09:54:02;;;;;;;68.07;26.55;;;4.60;99.90;;;;;;5070109;28;20039;-63
2021/03/01 09:56:42;;;;;;;66.78;26.65;;;4.70;99.90;;;;;;5070185;28;20024;-65
2021/03/01 09:59:09;;;;;;;70.75;27.50;;;4.70;99.90;;;;;;5071855;28;20025;-64
2021/03/01 10:01:34;;;;;;;74.70;27.45;;;4.70;99.90;;;;;;5090762;28;20595;-63
2021/03/01 10:04:00;;;;;;;73.55;27.38;;;4.80;99.90;;;;;;5090894;28;20074;-65
2021/03/01 10:06:35;;;;;;;63.85;24.05;;;4.80;99.90;;;;;;5070294;28;20370;-63
2021/03/01 10:09:07;;;;;;;57.13;24.05;;;4.80;99.90;;;;;;5071051;28;20028;-64
2021/03/01 10:11:34;;;;;;;64.65;24.75;;;4.80;99.90;;;;;;5070720;28;20028;-65
2021/03/01 10:14:07;;;;;;;67.32;24.35;;;4.80;99.90;;;;;;5069973;28;20038;-65
2021/03/01 10:16:37;;;;;;;55.33;22.75;;;4.90;99.90;;;;;;5069971;28;20474;-67
2021/03/01 10:19:15;;;;;;;57.38;25.25;;;4.90;99.90;;;;;;5070466;28;20029;-66
2021/03/01 10:21:42;;;;;;;56.85;22.92;;;4.90;99.90;;;;;;5069294;28;20044;-63
2021/03/01 10:24:12;;;;;;;58.97;24.65;;;4.90;99.90;;;;;;5069038;28;20554;-64
2021/03/01 10:27:00;;;;;;;53.70;22.60;;;5.10;99.90;;;;;;5052015;28;20017;-64
2021/03/01 10:29:40;;;;;;;62.38;23.88;;;5.00;99.90;;;;;;5068449;28;20040;-63
2021/03/01 10:32:21;;;;;;;55.58;22.58;;;4.90;99.90;;;;;;5067584;28;20025;-62
2021/03/01 10:34:47;;;;;;;47.88;23.55;;;5.00;99.90;;;;;;5066797;28;20067;-63
2021/03/01 10:37:14;;;;;;;56.17;23.17;;;5.10;99.90;;;;;;5069947;28;20020;-65
2021/03/01 10:39:45;;;;;;;54.45;22.10;;;5.00;99.90;;;;;;5073294;28;20043;-65
2021/03/01 10:42:19;;;;;;;51.95;21.33;;;4.90;99.90;;;;;;5081089;28;20361;-64
2021/03/01 10:45:00;;;;;;;49.75;20.75;;;4.90;99.90;;;;;;5061031;28;20504;-65
2021/03/01 10:47:34;;;;;;;52.72;22.88;;;5.10;99.90;;;;;;5061012;28;20476;-64
2021/03/01 10:50:19;;;;;;;49.58;21.85;;;5.00;99.90;;;;;;5071789;28;20020;-62
2021/03/01 10:52:45;;;;;;;54.47;22.50;;;5.00;99.90;;;;;;5080976;28;20440;-63
2021/03/01 10:55:11;;;;;;;52.17;22.08;;;5.00;99.90;;;;;;5075368;28;20533;-63
2021/03/01 10:57:36;;;;;;;49.92;21.92;;;5.10;99.90;;;;;;5067825;28;20059;-64
2021/03/01 11:00:04;;;;;;;48.00;22.10;;;5.20;99.90;;;;;;5079772;28;20372;-65
2021/03/01 11:02:30;;;;;;;53.78;22.08;;;5.20;99.90;;;;;;5073103;28;20118;-64
2021/03/01 11:04:55;;;;;;;46.65;21.45;;;5.20;99.90;;;;;;5076229;28;20540;-63
2021/03/01 11:07:21;;;;;;;47.28;21.50;;;5.20;99.90;;;;;;5077724;28;20029;-63
2021/03/01 11:09:46;;;;;;;45.30;20.75;;;5.20;99.90;;;;;;5069071;28;20496;-63
2021/03/01 11:12:13;;;;;;;44.25;20.23;;;5.40;99.90;;;;;;5051417;28;20462;-65
2021/03/01 11:14:39;;;;;;;50.70;20.83;;;5.30;99.90;;;;;;5068864;28;20020;-65
2021/03/01 11:17:05;;;;;;;42.85;20.48;;;5.10;99.90;;;;;;5069137;28;20028;-63
2021/03/01 11:19:31;;;;;;;45.05;19.27;;;5.10;99.90;;;;;;5069096;28;20419;-65
2021/03/01 11:21:56;;;;;;;50.80;21.70;;;5.10;99.90;;;;;;5058302;28;20049;-63
2021/03/01 11:24:22;;;;;;;41.47;19.35;;;5.20;99.90;;;;;;5050238;28;20033;-65
2021/03/01 11:26:52;;;;;;;41.30;18.80;;;5.30;99.90;;;;;;5065933;28;20046;-66
2021/03/01 11:29:18;;;;;;;48.78;21.08;;;5.50;99.90;;;;;;5060675;28;20490;-66
2021/03/01 11:31:44;;;;;;;43.13;20.05;;;5.40;99.90;;;;;;5064156;28;20479;-64
2021/03/01 11:34:11;;;;;;;41.08;20.85;;;5.40;99.90;;;;;;5050824;28;20029;-65
2021/03/01 11:36:37;;;;;;;48.17;20.48;;;5.50;99.90;;;;;;5077863;28;20020;-64
2021/03/01 11:39:07;;;;;;;46.90;20.25;;;5.80;99.90;;;;;;5086310;28;20016;-66
2021/03/01 11:41:33;;;;;;;36.88;18.75;;;5.80;99.90;;;;;;5072805;28;20078;-67
2021/03/01 11:43:58;;;;;;;37.95;20.00;;;6.00;99.90;;;;;;5082807;28;20032;-65
2021/03/01 11:46:24;;;;;;;42.05;19.80;;;6.10;99.90;;;;;;5075121;28;20024;-64
2021/03/01 11:48:50;;;;;;;47.58;21.48;;;6.20;99.90;;;;;;5066830;28;20465;-64
2021/03/01 11:51:16;;;;;;;40.25;20.05;;;6.20;99.90;;;;;;5056378;28;20475;-65
2021/03/01 11:53:42;;;;;;;37.17;17.88;;;6.40;99.90;;;;;;5069365;28;20070;-65
2021/03/01 11:56:08;;;;;;;51.08;21.63;;;6.60;99.90;;;;;;5068367;28;20028;-65
2021/03/01 11:58:38;;;;;;;47.72;22.02;;;6.60;99.90;;;;;;5079875;28;20028;-68
2021/03/01 12:01:05;;;;;;;43.50;20.98;;;6.70;99.90;;;;;;5072804;28;20016;-65
2021/03/01 12:03:31;;;;;;;45.20;22.45;;;6.70;99.90;;;;;;5088604;28;20480;-66
2021/03/01 12:05:57;;;;;;;46.67;22.70;;;6.70;99.90;;;;;;5073111;28;20119;-66
2021/03/01 12:08:22;;;;;;;45.00;22.80;;;6.60;99.90;;;;;;5068751;28;20021;-65
2021/03/01 12:10:48;;;;;;;46.17;21.92;;;6.60;99.90;;;;;;5067020;28;20494;-63
2021/03/01 12:13:14;;;;;;;48.53;22.38;;;6.40;99.90;;;;;;5066048;28;20021;-64
2021/03/01 12:15:39;;;;;;;46.08;22.02;;;6.20;99.90;;;;;;5060175;28;20614;-64
2021/03/01 12:18:05;;;;;;;54.50;23.25;;;6.40;99.90;;;;;;5049429;28;20032;-66
2021/03/01 12:20:31;;;;;;;41.75;20.13;;;6.30;99.90;;;;;;5059473;28;20489;-65
2021/03/01 12:22:56;;;;;;;42.72;20.48;;;6.30;99.90;;;;;;5067670;28;20489;-66
2021/03/01 12:25:22;;;;;;;41.53;20.77;;;6.30;99.90;;;;;;5064101;28;20493;-62
2021/03/01 12:27:48;;;;;;;41.42;20.67;;;6.40;99.90;;;;;;5051409;28;20032;-63
2021/03/01 12:30:15;;;;;;;40.75;20.55;;;6.30;99.90;;;;;;5035673;28;20017;-65
2021/03/01 12:32:40;;;;;;;43.67;20.33;;;6.30;99.90;;;;;;5051342;28;20018;-64
2021/03/01 12:35:06;;;;;;;43.67;20.13;;;6.40;99.90;;;;;;5070653;28;20016;-64
2021/03/01 12:37:32;;;;;;;44.65;21.40;;;6.40;99.90;;;;;;5087220;28;20029;-63
2021/03/01 12:39:58;;;;;;;44.63;19.13;;;6.40;99.90;;;;;;5072431;28;20031;-65
2021/03/01 12:42:24;;;;;;;41.40;19.65;;;6.20;99.90;;;;;;5079907;28;20147;-66